Lisse, Netherlands
Current Conditions -  °F | °C
As of 6:25 PM on Friday 19 Dec 2014 (Local Time) from EHAM Reporting Station
Few Clouds Few Clouds  
Wind Chill: 39°   Ceiling: Unl
Heat Index: 46°   Visibility: 6mi
Dew Point: 37°   Wind: 22mph
Humidity: 71%   Direction: 270°W
Pressure: 29.94"   Gusts: NA
Location:  52.26°N, 4.56°E
Report Text: EHAM 191725Z 27019KT 9999 FEW030 08/03 Q1014 NOSIG
Loading
Personal Weather Stations






























Interactive Weather Map New forecast layout! Learn more

10-Day Weather Forecast

Advertisements
Track Severe Weather on mobile